sensor_id;sensor_type;location;lat;lon;timestamp;P1;durP1;ratioP1;P2;durP2;ratioP2
23280;SDS011;11809;56.390;-3.266;2022-07-01T00:01:12;2.85;;;0.70;;
23280;SDS011;11809;56.390;-3.266;2022-07-01T00:03:39;1.52;;;0.80;;
23280;SDS011;11809;56.390;-3.266;2022-07-01T00:06:06;0.93;;;0.77;;
23280;SDS011;11809;56.390;-3.266;2022-07-01T00:08:33;1.10;;;0.90;;
23280;SDS011;11809;56.390;-3.266;2022-07-01T00:11:00;1.40;;;0.80;;
23280;SDS011;11809;56.390;-3.266;2022-07-01T00:13:27;0.93;;;0.80;;
23280;SDS011;11809;56.390;-3.266;2022-07-01T00:15:53;0.85;;;0.68;;
23280;SDS011;11809;56.390;-3.266;2022-07-01T00:18:20;0.70;;;0.70;;
23280;SDS011;11809;56.390;-3.266;2022-07-01T00:20:50;0.80;;;0.70;;
23280;SDS011;11809;56.390;-3.266;2022-07-01T00:23:17;0.70;;;0.70;;
23280;SDS011;11809;56.390;-3.266;2022-07-01T00:25:45;2.13;;;0.80;;
23280;SDS011;11809;56.390;-3.266;2022-07-01T00:28:12;0.82;;;0.65;;
23280;SDS011;11809;56.390;-3.266;2022-07-01T00:30:39;0.70;;;0.70;;
23280;SDS011;11809;56.390;-3.266;2022-07-01T00:33:06;0.63;;;0.63;;
23280;SDS011;11809;56.390;-3.266;2022-07-01T00:35:33;0.70;;;0.70;;
23280;SDS011;11809;56.390;-3.266;2022-07-01T00:38:00;1.88;;;0.80;;
23280;SDS011;11809;56.390;-3.266;2022-07-01T00:40:27;0.80;;;0.70;;
23280;SDS011;11809;56.390;-3.266;2022-07-01T00:42:54;1.33;;;0.90;;
23280;SDS011;11809;56.390;-3.266;2022-07-01T00:45:21;0.60;;;0.60;;
23280;SDS011;11809;56.390;-3.266;2022-07-01T00:47:48;1.23;;;0.70;;
23280;SDS011;11809;56.390;-3.266;2022-07-01T00:50:16;1.50;;;0.80;;
23280;SDS011;11809;56.390;-3.266;2022-07-01T00:52:44;0.82;;;0.73;;
23280;SDS011;11809;56.390;-3.266;2022-07-01T00:55:12;1.30;;;0.80;;
23280;SDS011;11809;56.390;-3.266;2022-07-01T00:57:41;1.33;;;1.00;;
23280;SDS011;11809;56.390;-3.266;2022-07-01T01:00:13;0.70;;;0.63;;
23280;SDS011;11809;56.390;-3.266;2022-07-01T01:02:46;0.75;;;0.75;;
23280;SDS011;11809;56.390;-3.266;2022-07-01T01:05:13;0.75;;;0.70;;
23280;SDS011;11809;56.390;-3.266;2022-07-01T01:07:40;0.88;;;0.70;;
23280;SDS011;11809;56.390;-3.266;2022-07-01T01:10:07;0.80;;;0.80;;
23280;SDS011;11809;56.390;-3.266;2022-07-01T01:12:35;1.20;;;1.00;;
23280;SDS011;11809;56.390;-3.266;2022-07-01T01:15:03;1.15;;;0.70;;
23280;SDS011;11809;56.390;-3.266;2022-07-01T01:17:31;2.35;;;0.77;;
23280;SDS011;11809;56.390;-3.266;2022-07-01T01:19:58;0.60;;;0.60;;
23280;SDS011;11809;56.390;-3.266;2022-07-01T01:22:25;0.70;;;0.70;;
23280;SDS011;11809;56.390;-3.266;2022-07-01T01:24:52;1.38;;;0.70;;
23280;SDS011;11809;56.390;-3.266;2022-07-01T01:27:18;0.98;;;0.73;;
23280;SDS011;11809;56.390;-3.266;2022-07-01T01:29:45;1.38;;;0.70;;
23280;SDS011;11809;56.390;-3.266;2022-07-01T01:32:12;0.60;;;0.60;;
23280;SDS011;11809;56.390;-3.266;2022-07-01T01:34:39;0.70;;;0.70;;
23280;SDS011;11809;56.390;-3.266;2022-07-01T01:37:07;0.82;;;0.57;;
23280;SDS011;11809;56.390;-3.266;2022-07-01T01:39:35;0.75;;;0.75;;
23280;SDS011;11809;56.390;-3.266;2022-07-01T01:42:05;0.60;;;0.60;;
23280;SDS011;11809;56.390;-3.266;2022-07-01T01:44:32;3.50;;;0.93;;
23280;SDS011;11809;56.390;-3.266;2022-07-01T01:47:00;0.70;;;0.70;;
23280;SDS011;11809;56.390;-3.266;2022-07-01T01:49:27;0.73;;;0.73;;
23280;SDS011;11809;56.390;-3.266;2022-07-01T01:51:56;0.65;;;0.65;;
23280;SDS011;11809;56.390;-3.266;2022-07-01T01:54:24;0.70;;;0.70;;
23280;SDS011;11809;56.390;-3.266;2022-07-01T01:56:51;0.70;;;0.70;;
23280;SDS011;11809;56.390;-3.266;2022-07-01T01:59:18;0.65;;;0.65;;
23280;SDS011;11809;56.390;-3.266;2022-07-01T02:01:45;0.73;;;0.60;;
23280;SDS011;11809;56.390;-3.266;2022-07-01T02:04:12;2.25;;;0.60;;
23280;SDS011;11809;56.390;-3.266;2022-07-01T02:06:39;0.80;;;0.80;;
23280;SDS011;11809;56.390;-3.266;2022-07-01T02:09:08;0.70;;;0.60;;
23280;SDS011;11809;56.390;-3.266;2022-07-01T02:11:35;2.03;;;0.60;;
23280;SDS011;11809;56.390;-3.266;2022-07-01T02:14:02;0.60;;;0.60;;
23280;SDS011;11809;56.390;-3.266;2022-07-01T02:16:29;0.85;;;0.70;;
23280;SDS011;11809;56.390;-3.266;2022-07-01T02:18:56;0.85;;;0.60;;
23280;SDS011;11809;56.390;-3.266;2022-07-01T02:21:23;0.43;;;0.43;;
23280;SDS011;11809;56.390;-3.266;2022-07-01T02:23:50;0.70;;;0.70;;
23280;SDS011;11809;56.390;-3.266;2022-07-01T02:26:18;0.50;;;0.50;;
23280;SDS011;11809;56.390;-3.266;2022-07-01T02:28:45;0.50;;;0.50;;
23280;SDS011;11809;56.390;-3.266;2022-07-01T02:31:13;0.77;;;0.50;;
23280;SDS011;11809;56.390;-3.266;2022-07-01T02:33:40;1.38;;;0.63;;
23280;SDS011;11809;56.390;-3.266;2022-07-01T02:36:07;1.83;;;0.70;;
23280;SDS011;11809;56.390;-3.266;2022-07-01T02:38:34;0.73;;;0.60;;
23280;SDS011;11809;56.390;-3.266;2022-07-01T02:41:01;0.70;;;0.70;;
23280;SDS011;11809;56.390;-3.266;2022-07-01T02:43:28;0.88;;;0.50;;
23280;SDS011;11809;56.390;-3.266;2022-07-01T02:45:56;0.77;;;0.60;;
23280;SDS011;11809;56.390;-3.266;2022-07-01T02:48:24;0.65;;;0.50;;
23280;SDS011;11809;56.390;-3.266;2022-07-01T02:50:51;0.65;;;0.60;;
23280;SDS011;11809;56.390;-3.266;2022-07-01T02:53:18;0.60;;;0.60;;
23280;SDS011;11809;56.390;-3.266;2022-07-01T02:55:45;1.73;;;0.70;;
23280;SDS011;11809;56.390;-3.266;2022-07-01T02:58:12;0.75;;;0.60;;
23280;SDS011;11809;56.390;-3.266;2022-07-01T03:00:39;0.52;;;0.52;;
23280;SDS011;11809;56.390;-3.266;2022-07-01T03:03:06;0.90;;;0.70;;
23280;SDS011;11809;56.390;-3.266;2022-07-01T03:05:33;0.85;;;0.60;;
23280;SDS011;11809;56.390;-3.266;2022-07-01T03:08:00;0.50;;;0.50;;
23280;SDS011;11809;56.390;-3.266;2022-07-01T03:10:27;0.77;;;0.52;;
23280;SDS011;11809;56.390;-3.266;2022-07-01T03:12:54;1.05;;;0.60;;
23280;SDS011;11809;56.390;-3.266;2022-07-01T03:15:22;0.75;;;0.60;;
23280;SDS011;11809;56.390;-3.266;2022-07-01T03:17:48;0.50;;;0.50;;
23280;SDS011;11809;56.390;-3.266;2022-07-01T03:20:16;0.40;;;0.40;;
23280;SDS011;11809;56.390;-3.266;2022-07-01T03:22:44;0.95;;;0.70;;
23280;SDS011;11809;56.390;-3.266;2022-07-01T03:25:12;0.85;;;0.60;;
23280;SDS011;11809;56.390;-3.266;2022-07-01T03:27:40;0.60;;;0.50;;
23280;SDS011;11809;56.390;-3.266;2022-07-01T03:30:12;0.55;;;0.55;;
23280;SDS011;11809;56.390;-3.266;2022-07-01T03:32:40;0.80;;;0.80;;
23280;SDS011;11809;56.390;-3.266;2022-07-01T03:35:08;0.50;;;0.50;;
23280;SDS011;11809;56.390;-3.266;2022-07-01T03:37:54;1.52;;;0.50;;
23280;SDS011;11809;56.390;-3.266;2022-07-01T03:40:22;0.70;;;0.50;;
23280;SDS011;11809;56.390;-3.266;2022-07-01T03:42:49;0.60;;;0.60;;
23280;SDS011;11809;56.390;-3.266;2022-07-01T03:45:15;0.75;;;0.55;;
23280;SDS011;11809;56.390;-3.266;2022-07-01T03:47:46;0.52;;;0.52;;
23280;SDS011;11809;56.390;-3.266;2022-07-01T03:50:17;0.50;;;0.50;;
23280;SDS011;11809;56.390;-3.266;2022-07-01T03:52:46;0.73;;;0.50;;
23280;SDS011;11809;56.390;-3.266;2022-07-01T03:55:13;2.83;;;0.60;;
23280;SDS011;11809;56.390;-3.266;2022-07-01T03:57:41;0.50;;;0.50;;
23280;SDS011;11809;56.390;-3.266;2022-07-01T04:00:08;0.50;;;0.50;;
23280;SDS011;11809;56.390;-3.266;2022-07-01T04:02:35;0.68;;;0.50;;
23280;SDS011;11809;56.390;-3.266;2022-07-01T04:05:02;0.70;;;0.57;;
23280;SDS011;11809;56.390;-3.266;2022-07-01T04:07:29;0.60;;;0.60;;
23280;SDS011;11809;56.390;-3.266;2022-07-01T04:09:56;0.70;;;0.70;;
23280;SDS011;11809;56.390;-3.266;2022-07-01T04:12:23;0.57;;;0.50;;
23280;SDS011;11809;56.390;-3.266;2022-07-01T04:14:50;0.60;;;0.60;;
23280;SDS011;11809;56.390;-3.266;2022-07-01T04:17:17;0.60;;;0.60;;
23280;SDS011;11809;56.390;-3.266;2022-07-01T04:19:44;1.02;;;0.50;;
23280;SDS011;11809;56.390;-3.266;2022-07-01T04:22:11;0.52;;;0.50;;
23280;SDS011;11809;56.390;-3.266;2022-07-01T04:24:56;1.35;;;0.57;;
23280;SDS011;11809;56.390;-3.266;2022-07-01T04:27:23;0.70;;;0.60;;
23280;SDS011;11809;56.390;-3.266;2022-07-01T04:29:50;0.68;;;0.50;;
23280;SDS011;11809;56.390;-3.266;2022-07-01T04:32:17;0.68;;;0.38;;
23280;SDS011;11809;56.390;-3.266;2022-07-01T04:34:44;0.60;;;0.60;;
23280;SDS011;11809;56.390;-3.266;2022-07-01T04:37:11;0.40;;;0.40;;
23280;SDS011;11809;56.390;-3.266;2022-07-01T04:39:38;0.70;;;0.50;;
23280;SDS011;11809;56.390;-3.266;2022-07-01T04:42:05;1.42;;;0.40;;
23280;SDS011;11809;56.390;-3.266;2022-07-01T04:44:33;0.60;;;0.43;;
23280;SDS011;11809;56.390;-3.266;2022-07-01T04:47:08;0.50;;;0.50;;
23280;SDS011;11809;56.390;-3.266;2022-07-01T04:49:35;0.93;;;0.50;;
23280;SDS011;11809;56.390;-3.266;2022-07-01T04:52:02;0.75;;;0.50;;
23280;SDS011;11809;56.390;-3.266;2022-07-01T04:54:29;0.50;;;0.50;;
23280;SDS011;11809;56.390;-3.266;2022-07-01T04:56:56;0.50;;;0.50;;
23280;SDS011;11809;56.390;-3.266;2022-07-01T04:59:23;0.50;;;0.50;;
23280;SDS011;11809;56.390;-3.266;2022-07-01T05:01:50;0.50;;;0.50;;
23280;SDS011;11809;56.390;-3.266;2022-07-01T05:04:17;2.00;;;0.60;;
23280;SDS011;11809;56.390;-3.266;2022-07-01T05:06:45;0.60;;;0.60;;
23280;SDS011;11809;56.390;-3.266;2022-07-01T05:09:13;0.40;;;0.40;;
23280;SDS011;11809;56.390;-3.266;2022-07-01T05:11:39;17.02;;;1.00;;
23280;SDS011;11809;56.390;-3.266;2022-07-01T05:14:07;8.35;;;0.93;;
23280;SDS011;11809;56.390;-3.266;2022-07-01T05:16:34;5.82;;;0.50;;
23280;SDS011;11809;56.390;-3.266;2022-07-01T05:19:02;1.95;;;0.73;;
23280;SDS011;11809;56.390;-3.266;2022-07-01T05:21:48;4.30;;;0.82;;
23280;SDS011;11809;56.390;-3.266;2022-07-01T05:24:30;3.83;;;0.95;;
23280;SDS011;11809;56.390;-3.266;2022-07-01T05:26:59;1.15;;;0.70;;
23280;SDS011;11809;56.390;-3.266;2022-07-01T05:29:27;2.83;;;0.77;;
23280;SDS011;11809;56.390;-3.266;2022-07-01T05:31:54;2.70;;;1.00;;
23280;SDS011;11809;56.390;-3.266;2022-07-01T05:34:21;4.95;;;1.10;;
23280;SDS011;11809;56.390;-3.266;2022-07-01T05:36:49;1.23;;;0.90;;
23280;SDS011;11809;56.390;-3.266;2022-07-01T05:39:16;2.83;;;0.90;;
23280;SDS011;11809;56.390;-3.266;2022-07-01T05:41:43;1.73;;;0.73;;
23280;SDS011;11809;56.390;-3.266;2022-07-01T05:44:10;2.25;;;1.02;;
23280;SDS011;11809;56.390;-3.266;2022-07-01T05:46:37;2.90;;;0.88;;
23280;SDS011;11809;56.390;-3.266;2022-07-01T05:49:04;1.23;;;1.00;;
23280;SDS011;11809;56.390;-3.266;2022-07-01T05:51:31;1.40;;;0.90;;
23280;SDS011;11809;56.390;-3.266;2022-07-01T05:53:58;3.33;;;0.90;;
23280;SDS011;11809;56.390;-3.266;2022-07-01T05:56:26;1.20;;;0.90;;
23280;SDS011;11809;56.390;-3.266;2022-07-01T05:58:53;1.73;;;0.73;;
23280;SDS011;11809;56.390;-3.266;2022-07-01T06:01:20;1.73;;;0.90;;
23280;SDS011;11809;56.390;-3.266;2022-07-01T06:03:48;1.55;;;0.77;;
23280;SDS011;11809;56.390;-3.266;2022-07-01T06:06:15;5.75;;;1.77;;
23280;SDS011;11809;56.390;-3.266;2022-07-01T06:08:44;5.72;;;2.75;;
23280;SDS011;11809;56.390;-3.266;2022-07-01T06:11:11;4.38;;;2.03;;
23280;SDS011;11809;56.390;-3.266;2022-07-01T06:13:38;9.15;;;2.38;;
23280;SDS011;11809;56.390;-3.266;2022-07-01T06:16:06;4.63;;;2.58;;
23280;SDS011;11809;56.390;-3.266;2022-07-01T06:18:33;6.43;;;2.20;;
23280;SDS011;11809;56.390;-3.266;2022-07-01T06:21:00;7.93;;;2.88;;
23280;SDS011;11809;56.390;-3.266;2022-07-01T06:23:27;7.68;;;2.78;;
23280;SDS011;11809;56.390;-3.266;2022-07-01T06:25:54;10.30;;;2.70;;
23280;SDS011;11809;56.390;-3.266;2022-07-01T06:28:21;9.90;;;3.50;;
23280;SDS011;11809;56.390;-3.266;2022-07-01T06:30:48;12.05;;;3.88;;
23280;SDS011;11809;56.390;-3.266;2022-07-01T06:33:16;5.28;;;2.85;;
23280;SDS011;11809;56.390;-3.266;2022-07-01T06:35:42;13.95;;;2.95;;
23280;SDS011;11809;56.390;-3.266;2022-07-01T06:38:09;10.00;;;2.90;;
23280;SDS011;11809;56.390;-3.266;2022-07-01T06:40:36;6.55;;;2.92;;
23280;SDS011;11809;56.390;-3.266;2022-07-01T06:43:03;4.97;;;2.30;;
23280;SDS011;11809;56.390;-3.266;2022-07-01T06:45:31;12.70;;;2.70;;
23280;SDS011;11809;56.390;-3.266;2022-07-01T06:47:58;8.73;;;2.50;;
23280;SDS011;11809;56.390;-3.266;2022-07-01T06:50:25;7.60;;;2.65;;
23280;SDS011;11809;56.390;-3.266;2022-07-01T06:52:52;6.68;;;2.33;;
23280;SDS011;11809;56.390;-3.266;2022-07-01T06:55:19;4.82;;;2.45;;
23280;SDS011;11809;56.390;-3.266;2022-07-01T06:57:46;13.85;;;3.70;;
23280;SDS011;11809;56.390;-3.266;2022-07-01T07:00:13;9.07;;;2.50;;
23280;SDS011;11809;56.390;-3.266;2022-07-01T07:02:40;13.50;;;2.97;;
23280;SDS011;11809;56.390;-3.266;2022-07-01T07:05:07;14.30;;;3.03;;
23280;SDS011;11809;56.390;-3.266;2022-07-01T07:07:36;8.38;;;2.75;;
23280;SDS011;11809;56.390;-3.266;2022-07-01T07:10:03;10.65;;;3.45;;
23280;SDS011;11809;56.390;-3.266;2022-07-01T07:12:31;6.72;;;2.30;;
23280;SDS011;11809;56.390;-3.266;2022-07-01T07:14:58;3.63;;;1.20;;
23280;SDS011;11809;56.390;-3.266;2022-07-01T07:17:25;3.33;;;1.10;;
23280;SDS011;11809;56.390;-3.266;2022-07-01T07:19:52;17.40;;;1.73;;
23280;SDS011;11809;56.390;-3.266;2022-07-01T07:22:21;7.03;;;1.58;;
23280;SDS011;11809;56.390;-3.266;2022-07-01T07:24:49;9.48;;;1.67;;
23280;SDS011;11809;56.390;-3.266;2022-07-01T07:27:16;14.63;;;2.35;;
23280;SDS011;11809;56.390;-3.266;2022-07-01T07:29:43;7.03;;;1.85;;
23280;SDS011;11809;56.390;-3.266;2022-07-01T07:32:10;16.42;;;2.17;;
23280;SDS011;11809;56.390;-3.266;2022-07-01T07:34:37;8.63;;;1.88;;
23280;SDS011;11809;56.390;-3.266;2022-07-01T07:37:05;13.45;;;1.35;;
23280;SDS011;11809;56.390;-3.266;2022-07-01T07:39:32;5.38;;;1.10;;
23280;SDS011;11809;56.390;-3.266;2022-07-01T07:41:59;4.80;;;0.75;;
23280;SDS011;11809;56.390;-3.266;2022-07-01T07:44:27;23.92;;;1.25;;
23280;SDS011;11809;56.390;-3.266;2022-07-01T07:46:54;14.43;;;1.13;;
23280;SDS011;11809;56.390;-3.266;2022-07-01T07:49:21;20.33;;;1.20;;
23280;SDS011;11809;56.390;-3.266;2022-07-01T07:51:48;2.17;;;0.90;;
23280;SDS011;11809;56.390;-3.266;2022-07-01T07:54:15;6.07;;;1.17;;
23280;SDS011;11809;56.390;-3.266;2022-07-01T07:56:42;43.45;;;2.47;;
23280;SDS011;11809;56.390;-3.266;2022-07-01T07:59:11;11.02;;;2.03;;
23280;SDS011;11809;56.390;-3.266;2022-07-01T08:01:38;6.85;;;1.17;;
23280;SDS011;11809;56.390;-3.266;2022-07-01T08:04:05;13.98;;;1.45;;
23280;SDS011;11809;56.390;-3.266;2022-07-01T08:06:32;12.13;;;1.60;;
23280;SDS011;11809;56.390;-3.266;2022-07-01T08:09:00;5.95;;;1.00;;
23280;SDS011;11809;56.390;-3.266;2022-07-01T08:11:27;2.78;;;0.80;;
23280;SDS011;11809;56.390;-3.266;2022-07-01T08:13:54;9.73;;;0.90;;
23280;SDS011;11809;56.390;-3.266;2022-07-01T08:16:21;7.28;;;1.33;;
23280;SDS011;11809;56.390;-3.266;2022-07-01T08:18:48;10.55;;;1.08;;
23280;SDS011;11809;56.390;-3.266;2022-07-01T08:21:15;4.43;;;1.00;;
23280;SDS011;11809;56.390;-3.266;2022-07-01T08:23:43;4.70;;;1.13;;
23280;SDS011;11809;56.390;-3.266;2022-07-01T08:26:10;6.88;;;2.15;;
23280;SDS011;11809;56.390;-3.266;2022-07-01T08:28:40;2.05;;;1.05;;
23280;SDS011;11809;56.390;-3.266;2022-07-01T08:31:07;4.25;;;0.90;;
23280;SDS011;11809;56.390;-3.266;2022-07-01T08:33:35;2.60;;;0.90;;
23280;SDS011;11809;56.390;-3.266;2022-07-01T08:36:04;3.25;;;0.88;;
23280;SDS011;11809;56.390;-3.266;2022-07-01T08:38:32;2.13;;;1.02;;
23280;SDS011;11809;56.390;-3.266;2022-07-01T08:40:59;8.90;;;1.52;;
23280;SDS011;11809;56.390;-3.266;2022-07-01T08:43:28;16.02;;;1.73;;
23280;SDS011;11809;56.390;-3.266;2022-07-01T08:45:55;3.60;;;0.95;;
23280;SDS011;11809;56.390;-3.266;2022-07-01T08:48:25;1.47;;;0.90;;
23280;SDS011;11809;56.390;-3.266;2022-07-01T08:50:52;5.45;;;0.80;;
23280;SDS011;11809;56.390;-3.266;2022-07-01T08:53:20;5.68;;;1.10;;
23280;SDS011;11809;56.390;-3.266;2022-07-01T08:55:47;5.70;;;1.10;;
23280;SDS011;11809;56.390;-3.266;2022-07-01T08:58:33;1.73;;;0.70;;
23280;SDS011;11809;56.390;-3.266;2022-07-01T09:01:22;6.18;;;0.90;;
23280;SDS011;11809;56.390;-3.266;2022-07-01T09:03:51;2.07;;;0.80;;
23280;SDS011;11809;56.390;-3.266;2022-07-01T09:06:26;7.07;;;1.30;;
23280;SDS011;11809;56.390;-3.266;2022-07-01T09:08:54;4.03;;;0.95;;
23280;SDS011;11809;56.390;-3.266;2022-07-01T09:11:36;3.53;;;0.93;;
23280;SDS011;11809;56.390;-3.266;2022-07-01T09:14:10;4.13;;;0.70;;
23280;SDS011;11809;56.390;-3.266;2022-07-01T09:16:39;1.70;;;0.68;;
23280;SDS011;11809;56.390;-3.266;2022-07-01T09:19:06;4.43;;;0.60;;
23280;SDS011;11809;56.390;-3.266;2022-07-01T09:21:33;5.50;;;0.77;;
23280;SDS011;11809;56.390;-3.266;2022-07-01T09:24:05;6.10;;;0.80;;
23280;SDS011;11809;56.390;-3.266;2022-07-01T09:26:51;4.82;;;0.82;;
23280;SDS011;11809;56.390;-3.266;2022-07-01T09:29:34;5.22;;;0.90;;
23280;SDS011;11809;56.390;-3.266;2022-07-01T09:32:03;4.50;;;1.02;;
23280;SDS011;11809;56.390;-3.266;2022-07-01T09:37:30;7.82;;;0.93;;
23280;SDS011;11809;56.390;-3.266;2022-07-01T09:39:57;10.20;;;1.00;;
23280;SDS011;11809;56.390;-3.266;2022-07-01T09:42:25;9.77;;;0.98;;
23280;SDS011;11809;56.390;-3.266;2022-07-01T09:45:04;1.70;;;0.80;;
23280;SDS011;11809;56.390;-3.266;2022-07-01T09:47:40;2.95;;;1.08;;
23280;SDS011;11809;56.390;-3.266;2022-07-01T09:50:09;4.97;;;0.77;;
23280;SDS011;11809;56.390;-3.266;2022-07-01T09:52:37;1.88;;;0.75;;
23280;SDS011;11809;56.390;-3.266;2022-07-01T09:55:05;2.00;;;0.50;;
23280;SDS011;11809;56.390;-3.266;2022-07-01T09:57:34;9.30;;;1.10;;
23280;SDS011;11809;56.390;-3.266;2022-07-01T10:00:03;5.50;;;1.10;;
23280;SDS011;11809;56.390;-3.266;2022-07-01T10:02:31;8.98;;;1.23;;
23280;SDS011;11809;56.390;-3.266;2022-07-01T10:05:02;4.30;;;1.10;;
23280;SDS011;11809;56.390;-3.266;2022-07-01T10:12:54;3.30;;;0.80;;
23280;SDS011;11809;56.390;-3.266;2022-07-01T10:15:22;4.18;;;1.08;;
23280;SDS011;11809;56.390;-3.266;2022-07-01T10:17:50;5.80;;;1.10;;
23280;SDS011;11809;56.390;-3.266;2022-07-01T10:20:23;4.28;;;0.90;;
23280;SDS011;11809;56.390;-3.266;2022-07-01T10:23:13;2.30;;;0.90;;
23280;SDS011;11809;56.390;-3.266;2022-07-01T10:25:40;3.17;;;1.08;;
23280;SDS011;11809;56.390;-3.266;2022-07-01T10:28:19;5.07;;;1.00;;
23280;SDS011;11809;56.390;-3.266;2022-07-01T10:36:30;3.65;;;0.80;;
23280;SDS011;11809;56.390;-3.266;2022-07-01T10:41:40;2.08;;;1.02;;
23280;SDS011;11809;56.390;-3.266;2022-07-01T10:44:39;1.63;;;0.70;;
23280;SDS011;11809;56.390;-3.266;2022-07-01T10:47:07;2.40;;;0.80;;
23280;SDS011;11809;56.390;-3.266;2022-07-01T10:52:06;1.70;;;0.60;;
23280;SDS011;11809;56.390;-3.266;2022-07-01T10:57:25;1.48;;;0.75;;
23280;SDS011;11809;56.390;-3.266;2022-07-01T11:02:28;0.60;;;0.55;;
23280;SDS011;11809;56.390;-3.266;2022-07-01T11:05:08;1.90;;;0.77;;
23280;SDS011;11809;56.390;-3.266;2022-07-01T11:07:37;2.92;;;0.70;;
23280;SDS011;11809;56.390;-3.266;2022-07-01T11:10:06;1.50;;;0.50;;
23280;SDS011;11809;56.390;-3.266;2022-07-01T11:12:34;3.05;;;0.70;;
23280;SDS011;11809;56.390;-3.266;2022-07-01T11:15:02;0.88;;;0.60;;
23280;SDS011;11809;56.390;-3.266;2022-07-01T11:17:35;2.28;;;0.60;;
23280;SDS011;11809;56.390;-3.266;2022-07-01T11:20:08;1.13;;;0.50;;
23280;SDS011;11809;56.390;-3.266;2022-07-01T11:22:36;2.60;;;0.55;;
23280;SDS011;11809;56.390;-3.266;2022-07-01T11:27:35;0.60;;;0.60;;
23280;SDS011;11809;56.390;-3.266;2022-07-01T11:30:04;0.73;;;0.70;;
23280;SDS011;11809;56.390;-3.266;2022-07-01T11:32:35;1.45;;;0.70;;
23280;SDS011;11809;56.390;-3.266;2022-07-01T11:35:04;0.93;;;0.90;;
23280;SDS011;11809;56.390;-3.266;2022-07-01T11:38:08;1.13;;;0.70;;
23280;SDS011;11809;56.390;-3.266;2022-07-01T11:40:54;1.40;;;0.77;;
23280;SDS011;11809;56.390;-3.266;2022-07-01T11:43:26;1.88;;;0.70;;
23280;SDS011;11809;56.390;-3.266;2022-07-01T11:45:58;2.13;;;0.68;;
23280;SDS011;11809;56.390;-3.266;2022-07-01T11:48:38;0.88;;;0.88;;
23280;SDS011;11809;56.390;-3.266;2022-07-01T11:51:19;0.50;;;0.50;;
23280;SDS011;11809;56.390;-3.266;2022-07-01T11:53:52;0.80;;;0.70;;
23280;SDS011;11809;56.390;-3.266;2022-07-01T11:56:30;0.80;;;0.52;;
23280;SDS011;11809;56.390;-3.266;2022-07-01T11:59:00;2.40;;;0.50;;
23280;SDS011;11809;56.390;-3.266;2022-07-01T12:01:34;0.70;;;0.52;;
23280;SDS011;11809;56.390;-3.266;2022-07-01T12:04:03;0.52;;;0.50;;
23280;SDS011;11809;56.390;-3.266;2022-07-01T12:06:32;1.10;;;0.47;;
23280;SDS011;11809;56.390;-3.266;2022-07-01T12:09:00;0.80;;;0.55;;
23280;SDS011;11809;56.390;-3.266;2022-07-01T12:11:28;1.55;;;0.43;;
23280;SDS011;11809;56.390;-3.266;2022-07-01T12:14:03;0.45;;;0.45;;
23280;SDS011;11809;56.390;-3.266;2022-07-01T12:16:37;2.53;;;0.65;;
23280;SDS011;11809;56.390;-3.266;2022-07-01T12:19:06;2.00;;;0.60;;
23280;SDS011;11809;56.390;-3.266;2022-07-01T12:24:19;1.23;;;0.60;;
23280;SDS011;11809;56.390;-3.266;2022-07-01T12:26:59;1.90;;;0.55;;
23280;SDS011;11809;56.390;-3.266;2022-07-01T12:32:14;0.52;;;0.43;;
23280;SDS011;11809;56.390;-3.266;2022-07-01T12:34:51;0.40;;;0.40;;
23280;SDS011;11809;56.390;-3.266;2022-07-01T12:42:42;0.90;;;0.50;;
23280;SDS011;11809;56.390;-3.266;2022-07-01T12:45:10;0.63;;;0.50;;
23280;SDS011;11809;56.390;-3.266;2022-07-01T12:47:48;1.67;;;0.40;;
23280;SDS011;11809;56.390;-3.266;2022-07-01T12:50:23;0.95;;;0.50;;
23280;SDS011;11809;56.390;-3.266;2022-07-01T12:55:32;0.85;;;0.40;;
23280;SDS011;11809;56.390;-3.266;2022-07-01T12:58:13;0.63;;;0.52;;
23280;SDS011;11809;56.390;-3.266;2022-07-01T13:00:47;0.40;;;0.40;;
23280;SDS011;11809;56.390;-3.266;2022-07-01T13:03:23;0.68;;;0.45;;
23280;SDS011;11809;56.390;-3.266;2022-07-01T13:05:56;0.30;;;0.30;;
23280;SDS011;11809;56.390;-3.266;2022-07-01T13:08:24;0.40;;;0.40;;
23280;SDS011;11809;56.390;-3.266;2022-07-01T13:10:51;0.85;;;0.47;;
23280;SDS011;11809;56.390;-3.266;2022-07-01T13:13:18;0.50;;;0.40;;
23280;SDS011;11809;56.390;-3.266;2022-07-01T13:15:45;0.40;;;0.30;;
23280;SDS011;11809;56.390;-3.266;2022-07-01T13:18:13;0.90;;;0.32;;
23280;SDS011;11809;56.390;-3.266;2022-07-01T13:20:43;0.50;;;0.50;;
23280;SDS011;11809;56.390;-3.266;2022-07-01T13:23:13;0.55;;;0.40;;
23280;SDS011;11809;56.390;-3.266;2022-07-01T13:25:40;0.40;;;0.40;;
23280;SDS011;11809;56.390;-3.266;2022-07-01T13:28:07;1.30;;;0.60;;
23280;SDS011;11809;56.390;-3.266;2022-07-01T13:30:35;0.30;;;0.30;;
23280;SDS011;11809;56.390;-3.266;2022-07-01T13:33:03;0.45;;;0.40;;
23280;SDS011;11809;56.390;-3.266;2022-07-01T13:35:30;0.60;;;0.40;;
23280;SDS011;11809;56.390;-3.266;2022-07-01T13:37:58;1.50;;;0.40;;
23280;SDS011;11809;56.390;-3.266;2022-07-01T13:40:25;0.30;;;0.30;;
23280;SDS011;11809;56.390;-3.266;2022-07-01T13:42:52;0.60;;;0.40;;
23280;SDS011;11809;56.390;-3.266;2022-07-01T13:45:19;0.47;;;0.30;;
23280;SDS011;11809;56.390;-3.266;2022-07-01T13:47:46;1.95;;;0.30;;
23280;SDS011;11809;56.390;-3.266;2022-07-01T13:50:13;3.92;;;0.47;;
23280;SDS011;11809;56.390;-3.266;2022-07-01T13:52:48;0.30;;;0.30;;
23280;SDS011;11809;56.390;-3.266;2022-07-01T13:55:16;0.63;;;0.40;;
23280;SDS011;11809;56.390;-3.266;2022-07-01T13:57:44;1.50;;;0.38;;
23280;SDS011;11809;56.390;-3.266;2022-07-01T14:00:13;0.30;;;0.30;;
23280;SDS011;11809;56.390;-3.266;2022-07-01T14:02:40;0.30;;;0.30;;
23280;SDS011;11809;56.390;-3.266;2022-07-01T14:05:08;0.40;;;0.40;;
23280;SDS011;11809;56.390;-3.266;2022-07-01T14:07:35;1.13;;;0.30;;
23280;SDS011;11809;56.390;-3.266;2022-07-01T14:10:03;0.40;;;0.30;;
23280;SDS011;11809;56.390;-3.266;2022-07-01T14:12:31;0.30;;;0.30;;
23280;SDS011;11809;56.390;-3.266;2022-07-01T14:14:58;1.00;;;0.40;;
23280;SDS011;11809;56.390;-3.266;2022-07-01T14:17:25;0.43;;;0.30;;
23280;SDS011;11809;56.390;-3.266;2022-07-01T14:19:53;0.32;;;0.32;;
23280;SDS011;11809;56.390;-3.266;2022-07-01T14:22:23;0.38;;;0.30;;
23280;SDS011;11809;56.390;-3.266;2022-07-01T14:24:51;0.45;;;0.30;;
23280;SDS011;11809;56.390;-3.266;2022-07-01T14:27:18;0.40;;;0.40;;
23280;SDS011;11809;56.390;-3.266;2022-07-01T14:29:46;0.90;;;0.30;;
23280;SDS011;11809;56.390;-3.266;2022-07-01T14:32:19;0.28;;;0.28;;
23280;SDS011;11809;56.390;-3.266;2022-07-01T14:34:53;0.30;;;0.30;;
23280;SDS011;11809;56.390;-3.266;2022-07-01T14:37:20;0.25;;;0.25;;
23280;SDS011;11809;56.390;-3.266;2022-07-01T14:39:47;0.63;;;0.30;;
23280;SDS011;11809;56.390;-3.266;2022-07-01T14:42:17;2.03;;;0.30;;
23280;SDS011;11809;56.390;-3.266;2022-07-01T14:44:44;2.28;;;0.50;;
23280;SDS011;11809;56.390;-3.266;2022-07-01T14:47:11;0.32;;;0.30;;
23280;SDS011;11809;56.390;-3.266;2022-07-01T14:49:38;1.40;;;0.30;;
23280;SDS011;11809;56.390;-3.266;2022-07-01T14:52:05;0.30;;;0.30;;
23280;SDS011;11809;56.390;-3.266;2022-07-01T14:54:33;0.30;;;0.30;;
23280;SDS011;11809;56.390;-3.266;2022-07-01T14:57:00;0.32;;;0.32;;
23280;SDS011;11809;56.390;-3.266;2022-07-01T14:59:27;0.38;;;0.38;;
23280;SDS011;11809;56.390;-3.266;2022-07-01T15:01:54;0.38;;;0.38;;
23280;SDS011;11809;56.390;-3.266;2022-07-01T15:04:22;0.50;;;0.30;;
23280;SDS011;11809;56.390;-3.266;2022-07-01T15:06:49;0.40;;;0.40;;
23280;SDS011;11809;56.390;-3.266;2022-07-01T15:09:16;0.40;;;0.40;;
23280;SDS011;11809;56.390;-3.266;2022-07-01T15:11:48;0.35;;;0.35;;
23280;SDS011;11809;56.390;-3.266;2022-07-01T15:16:46;0.30;;;0.30;;
23280;SDS011;11809;56.390;-3.266;2022-07-01T15:19:13;0.38;;;0.38;;
23280;SDS011;11809;56.390;-3.266;2022-07-01T15:21:40;0.50;;;0.40;;
23280;SDS011;11809;56.390;-3.266;2022-07-01T15:24:07;0.22;;;0.22;;
23280;SDS011;11809;56.390;-3.266;2022-07-01T15:26:34;0.30;;;0.30;;